Time;durP1;ratioP1;P1;durP2;ratioP2;P2;SDS_P1;SDS_P2;PMS_P1;PMS_P2;Temp;Humidity;BMP_temperature;BMP_pressure;BME280_temperature;BME280_humidity;BME280_pressure;Samples;Min_cycle;Max_cycle;Signal;HPM_P1;HPM_P2
2021/12/13 00:02:13;;;;;;;5.43;2.97;;;;;;;16.47;53.31;102332.75;4949155;29;20019;-57
2021/12/13 00:04:46;;;;;;;4.10;2.72;;;;;;;16.45;53.13;102323.06;4950175;29;20718;-57
2021/12/13 00:07:25;;;;;;;5.25;3.10;;;;;;;16.43;54.05;102323.19;4949026;29;20114;-57
2021/12/13 00:09:54;;;;;;;7.05;3.25;;;;;;;16.40;54.47;102318.03;4933180;29;20035;-58
2021/12/13 00:12:23;;;;;;;5.55;3.10;;;;;;;16.42;53.19;102324.19;4947986;29;20035;-60
2021/12/13 00:14:51;;;;;;;5.95;3.42;;;;;;;16.44;54.50;102330.34;4939748;29;20496;-57
2021/12/13 00:17:26;;;;;;;3.95;2.35;;;;;;;16.46;53.38;102327.50;4921936;29;20024;-57
2021/12/13 00:19:58;;;;;;;7.03;2.90;;;;;;;16.46;54.28;102333.75;4938841;29;20031;-57
2021/12/13 00:22:32;;;;;;;5.00;2.97;;;;;;;16.47;53.41;102326.50;4922836;29;20026;-57
2021/12/13 00:25:06;;;;;;;4.72;3.05;;;;;;;16.48;54.44;102330.91;4922217;29;20485;-58
2021/12/13 00:27:33;;;;;;;4.90;2.63;;;;;;;16.39;53.87;102319.03;4938969;29;20030;-57
2021/12/13 00:30:28;;;;;;;6.95;3.10;;;;;;;16.49;52.86;102338.91;4922299;29;20076;-57
2021/12/13 00:33:03;;;;;;;3.45;2.17;;;;;;;16.49;52.64;102338.03;4939319;29;20036;-57
2021/12/13 00:35:55;;;;;;;4.30;2.90;;;;;;;16.50;53.05;102340.59;4922253;29;20098;-56
2021/12/13 00:38:22;;;;;;;5.25;2.80;;;;;;;16.48;53.34;102345.28;4915510;29;20414;-57
2021/12/13 00:40:52;;;;;;;4.72;3.05;;;;;;;16.49;52.86;102338.03;4922016;29;20024;-58
2021/12/13 00:43:22;;;;;;;4.97;3.00;;;;;;;16.47;53.31;102342.75;4939109;29;20386;-57
2021/12/13 00:45:53;;;;;;;7.43;3.38;;;;;;;16.46;54.49;102339.16;4938913;29;20059;-57
2021/12/13 00:48:20;;;;;;;5.80;3.08;;;;;;;16.47;53.23;102343.56;4939620;29;20024;-58
2021/12/13 00:51:00;;;;;;;5.03;2.92;;;;;;;16.48;54.01;102345.28;4922634;29;20036;-57
2021/12/13 00:53:26;;;;;;;5.55;3.22;;;;;;;16.46;53.18;102339.16;4939858;29;20565;-57
2021/12/13 00:55:53;;;;;;;7.07;2.97;;;;;;;16.51;53.34;102336.94;4939508;29;20063;-57
2021/12/13 00:58:23;;;;;;;6.75;3.15;;;;;;;16.53;54.21;102329.56;4939452;29;20496;-57
2021/12/13 01:00:58;;;;;;;4.05;2.90;;;;;;;16.53;54.12;102334.97;4939847;29;20031;-57
2021/12/13 01:03:42;;;;;;;5.88;2.85;;;;;;;16.54;53.83;102342.13;4939947;29;20020;-57
2021/12/13 01:06:37;;;;;;;6.07;2.85;;;;;;;16.51;53.65;102336.94;4939325;29;20473;-57
2021/12/13 01:09:40;;;;;;;4.47;3.30;;;;;;;16.49;53.92;102338.03;4939399;29;20016;-58
2021/12/13 01:12:09;;;;;;;3.78;2.58;;;;;;;16.44;54.41;102338.44;4939490;29;20507;-57
2021/12/13 01:14:42;;;;;;;4.60;2.92;;;;;;;16.44;53.92;102343.00;4939948;29;20035;-57
2021/12/13 01:17:22;;;;;;;4.15;2.78;;;;;;;16.45;52.93;102339.28;4922298;29;20030;-57
2021/12/13 01:19:57;;;;;;;6.43;3.20;;;;;;;16.45;52.98;102334.72;4939356;29;20091;-57
2021/12/13 01:22:57;;;;;;;5.40;3.20;;;;;;;16.46;54.09;102336.47;4939088;29;20111;-57
2021/12/13 01:26:01;;;;;;;6.50;3.22;;;;;;;16.46;53.95;102339.16;4923612;29;20050;-57
2021/12/13 01:28:40;;;;;;;5.35;3.40;;;;;;;16.45;53.80;102342.84;4938993;29;20056;-57
2021/12/13 01:31:22;;;;;;;4.55;2.80;;;;;;;16.46;53.81;102349.13;4906157;29;20040;-57
2021/12/13 01:33:50;;;;;;;9.43;3.47;;;;;;;16.45;52.90;102348.25;4921909;29;20082;-57
2021/12/13 01:36:22;;;;;;;5.20;2.70;;;;;;;16.46;52.78;102354.53;4931649;29;20031;-57
2021/12/13 01:38:51;;;;;;;6.15;2.92;;;;;;;16.47;53.24;102361.66;4939658;28;20377;-57
2021/12/13 01:41:42;;;;;;;7.15;2.83;;;;;;;16.50;53.64;102364.94;4938900;29;20150;-57
2021/12/13 01:44:18;;;;;;;7.18;3.33;;;;;;;16.50;53.27;102367.66;4935907;29;20125;-57
2021/12/13 01:46:48;;;;;;;8.35;3.20;;;;;;;16.48;54.06;102375.06;4958080;29;20034;-57
2021/12/13 01:49:15;;;;;;;4.97;3.15;;;;;;;16.45;52.59;102364.50;4957908;29;20050;-57
2021/12/13 01:51:41;;;;;;;4.63;2.55;;;;;;;16.44;53.79;102364.63;4940609;29;20027;-57
2021/12/13 01:54:17;;;;;;;3.53;2.35;;;;;;;16.47;52.77;102373.31;4957830;29;20086;-57
2021/12/13 01:56:56;;;;;;;4.50;2.78;;;;;;;16.47;53.62;102378.72;4957705;29;20049;-57
2021/12/13 02:02:00;;;;;;;6.90;2.90;;;;;;;16.47;54.10;102376.03;4938468;29;20039;-57
2021/12/13 02:04:26;;;;;;;6.57;3.03;;;;;;;16.50;52.86;102377.66;4938172;29;20066;-57
2021/12/13 02:06:58;;;;;;;5.00;2.88;;;;;;;16.51;53.91;102379.34;4921139;29;20036;-57
2021/12/13 02:09:26;;;;;;;3.70;2.55;;;;;;;16.50;52.54;102373.06;4938432;29;20106;-57
2021/12/13 02:11:55;;;;;;;5.80;3.40;;;;;;;16.50;53.41;102373.06;4938100;29;20040;-58
2021/12/13 02:14:25;;;;;;;4.15;2.92;;;;;;;16.51;52.35;102371.22;4938027;29;20035;-57
2021/12/13 02:20:00;;;;;;;4.80;2.97;;;;;;;16.46;52.89;102360.81;4956714;29;20051;-58
2021/12/13 02:22:37;;;;;;;7.07;3.08;;;;;;;16.43;52.71;102366.47;4956987;29;20086;-57
2021/12/13 02:25:11;;;;;;;3.15;2.25;;;;;;;16.46;52.96;102360.81;4956945;29;20037;-57
2021/12/13 02:27:39;;;;;;;5.00;2.90;;;;;;;16.47;53.69;102361.66;4957062;29;20412;-57
2021/12/13 02:30:22;;;;;;;5.68;3.30;;;;;;;16.49;52.63;102360.56;4956772;29;20027;-57
2021/12/13 02:32:48;;;;;;;9.07;3.20;;;;;;;16.48;53.35;102358.81;4957099;29;20030;-57
2021/12/13 02:35:15;;;;;;;7.28;3.25;;;;;;;16.47;52.73;102361.66;4956853;29;20027;-57
2021/12/13 02:37:41;;;;;;;5.72;3.17;;;;;;;16.47;53.80;102362.50;4956809;29;20054;-57
2021/12/13 02:40:09;;;;;;;5.57;3.13;;;;;;;16.51;52.54;102363.97;4956874;29;20038;-58
2021/12/13 02:42:34;;;;;;;6.22;3.15;;;;;;;16.52;53.19;102363.00;4956590;29;20024;-57
2021/12/13 02:45:13;;;;;;;4.55;2.92;;;;;;;16.55;53.32;102372.72;4956839;29;20023;-57
2021/12/13 02:47:42;;;;;;;4.80;2.65;;;;;;;16.55;53.06;102368.19;4956572;29;20034;-58
2021/12/13 02:50:12;;;;;;;4.53;3.20;;;;;;;16.53;53.51;102372.84;4956886;29;20027;-57
2021/12/13 02:52:39;;;;;;;8.80;3.10;;;;;;;16.53;52.62;102367.44;4956415;29;20035;-57
2021/12/13 02:55:12;;;;;;;4.90;3.08;;;;;;;16.54;53.46;102371.88;4956945;29;20491;-57
2021/12/13 02:57:42;;;;;;;5.05;2.83;;;;;;;16.51;53.05;102366.69;4956793;29;20035;-57
2021/12/13 03:00:46;;;;;;;6.40;3.55;;;;;;;16.55;53.67;102370.91;4956880;29;20039;-57
2021/12/13 03:03:13;;;;;;;;;;;;;;;16.54;53.83;102369.16;4936679;29;20031;-57
2021/12/13 03:05:43;;;;;;;6.13;3.08;;;;;;;16.52;53.62;102373.81;4920789;29;19911;-57
2021/12/13 03:08:39;;;;;;;4.35;2.65;;;;;;;16.52;53.30;102371.13;4937763;29;20027;-58
2021/12/13 03:11:10;;;;;;;4.50;3.33;;;;;;;16.52;52.42;102381.06;4937268;29;20502;-57
2021/12/13 03:13:36;;;;;;;4.22;3.15;;;;;;;16.51;53.24;102382.91;4937243;29;20027;-57
2021/12/13 03:16:19;;;;;;;5.82;2.60;;;;;;;16.52;52.74;102376.53;4937549;29;20118;-57
2021/12/13 03:18:55;;;;;;;8.48;2.65;;;;;;;16.51;53.45;102379.34;4916661;29;20120;-57
2021/12/13 03:21:33;;;;;;;6.13;3.28;;;;;;;16.51;52.37;102369.38;4917260;29;20056;-57
2021/12/13 03:24:22;;;;;;;3.05;2.33;;;;;;;16.53;52.47;102369.25;4918694;29;20032;-57
2021/12/13 03:27:09;;;;;;;3.17;2.28;;;;;;;16.52;52.69;102365.72;4918475;29;20167;-57
2021/12/13 03:30:00;;;;;;;7.57;2.75;;;;;;;16.52;53.14;102376.53;4918220;29;20084;-57
2021/12/13 03:32:43;;;;;;;5.18;3.05;;;;;;;16.51;53.78;102374.81;4918267;29;20440;-58
2021/12/13 03:35:35;;;;;;;5.30;2.97;;;;;;;16.53;52.19;102369.25;4918369;29;20031;-57
2021/12/13 03:38:17;;;;;;;4.55;2.78;;;;;;;16.54;51.83;102377.28;4918089;29;20043;-57
2021/12/13 03:40:42;;;;;;;4.05;2.17;;;;;;;16.55;53.53;102376.31;4918157;29;20043;-57
2021/12/13 03:43:12;;;;;;;4.65;2.97;;;;;;;16.58;53.48;102383.28;4917872;29;20103;-57
2021/12/13 03:45:42;;;;;;;4.63;3.20;;;;;;;16.59;52.37;102388.56;4917946;29;20055;-57
2021/12/13 03:48:10;;;;;;;8.82;2.63;;;;;;;16.58;53.19;102378.72;4918403;29;20030;-57
2021/12/13 03:50:39;;;;;;;4.18;2.38;;;;;;;16.58;51.74;102381.41;4918187;29;20025;-57
2021/12/13 03:53:12;;;;;;;4.20;2.65;;;;;;;16.57;52.10;102381.56;4918034;29;20182;-57
2021/12/13 03:55:40;;;;;;;3.45;2.45;;;;;;;16.56;52.73;102383.41;4917914;29;20036;-57
2021/12/13 03:58:09;;;;;;;4.13;2.95;;;;;;;16.56;52.17;102391.53;4917866;29;20051;-57
2021/12/13 04:00:39;;;;;;;5.57;3.22;;;;;;;16.56;53.46;102380.72;4918304;29;20028;-58
2021/12/13 04:03:08;;;;;;;4.18;2.90;;;;;;;16.56;52.72;102394.22;4918248;29;20055;-57
2021/12/13 04:05:34;;;;;;;7.72;3.13;;;;;;;16.56;52.14;102396.94;4917963;29;20028;-57
2021/12/13 04:08:05;;;;;;;6.00;2.83;;;;;;;16.55;52.19;102381.72;4917917;29;20035;-58
2021/12/13 04:10:50;;;;;;;3.65;2.45;;;;;;;16.55;52.94;102387.13;4918144;29;20036;-57
2021/12/13 04:13:19;;;;;;;3.63;2.60;;;;;;;16.54;52.54;102390.81;4917733;29;20415;-57
2021/12/13 04:21:13;;;;;;;3.22;2.30;;;;;;;16.47;53.22;102388.72;4937020;29;20532;-57
2021/12/13 04:23:39;;;;;;;3.05;2.22;;;;;;;16.46;51.82;102395.09;4939552;29;20058;-58
2021/12/13 04:26:09;;;;;;;6.97;2.45;;;;;;;16.37;52.31;102377.81;4940254;29;20023;-57
2021/12/13 04:28:47;;;;;;;4.10;1.95;;;;;;;16.42;53.52;102390.94;4939907;29;20027;-57
2021/12/13 04:31:16;;;;;;;7.25;2.47;;;;;;;16.44;52.18;102394.38;4922860;29;20461;-57
2021/12/13 04:33:51;;;;;;;3.80;2.50;;;;;;;16.47;52.28;102394.97;4939677;29;20038;-58
2021/12/13 04:36:22;;;;;;;3.53;2.08;;;;;;;16.49;53.36;102386.75;4939634;29;20031;-58
2021/12/13 04:38:59;;;;;;;10.23;2.47;;;;;;;16.50;51.92;102397.41;4939578;29;20524;-57
2021/12/13 04:41:33;;;;;;;7.95;2.75;;;;;;;16.50;51.94;102394.72;4939651;29;20046;-57
2021/12/13 04:44:09;;;;;;;2.45;1.88;;;;;;;16.48;51.84;102390.41;4939343;29;20115;-57
2021/12/13 04:46:35;;;;;;;3.90;2.17;;;;;;;16.51;52.84;102396.44;4939551;29;20110;-57
2021/12/13 04:49:11;;;;;;;4.53;2.53;;;;;;;16.52;51.87;102390.06;4939880;29;20070;-57
2021/12/13 04:51:53;;;;;;;3.92;1.95;;;;;;;16.52;52.20;102392.75;4939569;29;20035;-57
2021/12/13 04:54:19;;;;;;;3.55;2.03;;;;;;;16.52;52.07;102398.16;4939603;29;20040;-57
2021/12/13 04:56:47;;;;;;;3.45;2.35;;;;;;;16.53;51.68;102397.19;4939957;29;20030;-58
2021/12/13 04:59:14;;;;;;;5.32;3.22;;;;;;;16.51;52.68;102393.72;4939845;29;20492;-57
2021/12/13 05:01:41;;;;;;;3.67;2.22;;;;;;;16.51;51.97;102396.44;4939413;29;20032;-57
2021/12/13 05:04:08;;;;;;;2.60;1.80;;;;;;;16.47;52.95;102389.56;4922469;29;20481;-57
2021/12/13 05:06:39;;;;;;;4.45;2.00;;;;;;;16.50;52.91;102400.13;4922601;29;20031;-57
2021/12/13 05:09:07;;;;;;;4.85;2.08;;;;;;;16.52;52.22;102403.59;4939540;29;20118;-58
2021/12/13 05:11:38;;;;;;;5.88;2.05;;;;;;;16.54;52.47;102403.47;4922300;29;20401;-57
2021/12/13 05:14:05;;;;;;;4.13;2.72;;;;;;;16.56;52.23;102415.00;4939562;29;20031;-57
2021/12/13 05:16:42;;;;;;;4.07;2.10;;;;;;;16.55;51.92;102399.78;4939286;29;20032;-57
2021/12/13 05:19:09;;;;;;;10.75;3.85;;;;;;;16.54;51.88;102412.44;4938888;29;20095;-57
2021/12/13 05:21:38;;;;;;;4.47;2.20;;;;;;;16.52;51.36;102414.41;4939007;29;20068;-57
2021/12/13 05:24:09;;;;;;;4.97;2.00;;;;;;;16.53;51.36;102410.72;4922354;29;20031;-57
2021/12/13 05:26:57;;;;;;;2.40;1.83;;;;;;;16.53;52.08;102413.44;4922124;29;20469;-57
2021/12/13 05:29:32;;;;;;;2.88;2.00;;;;;;;16.53;52.00;102410.72;4938264;29;20170;-57
2021/12/13 05:32:09;;;;;;;4.07;1.90;;;;;;;16.53;52.00;102405.31;4938995;29;20028;-57
2021/12/13 05:34:38;;;;;;;6.13;2.00;;;;;;;16.52;52.75;102397.31;4938134;29;20035;-57
2021/12/13 05:37:06;;;;;;;2.60;1.67;;;;;;;16.51;51.52;102400.97;4921415;29;20023;-57
2021/12/13 05:39:35;;;;;;;5.78;1.65;;;;;;;16.50;53.11;102416.34;4938675;29;20028;-57
2021/12/13 05:42:05;;;;;;;5.97;1.73;;;;;;;16.52;53.19;102414.41;4938492;29;20024;-58
2021/12/13 05:44:34;;;;;;;3.60;2.17;;;;;;;16.52;51.96;102418.94;4921980;29;20031;-57
2021/12/13 05:47:05;;;;;;;2.83;1.95;;;;;;;16.52;52.67;102408.13;4938944;29;20429;-57
2021/12/13 05:49:36;;;;;;;4.13;2.00;;;;;;;16.50;52.00;102416.34;4938749;29;20058;-57
2021/12/13 05:52:08;;;;;;;4.75;2.35;;;;;;;16.47;51.48;102411.19;4938611;29;20028;-57
2021/12/13 05:54:45;;;;;;;5.38;1.85;;;;;;;16.45;51.79;102402.34;4938867;29;20059;-58
2021/12/13 05:57:13;;;;;;;1.63;1.52;;;;;;;16.49;52.90;102420.06;4938655;29;20099;-57
2021/12/13 05:59:54;;;;;;;7.32;2.00;;;;;;;16.51;52.72;102422.63;4938548;29;20031;-57
2021/12/13 06:02:30;;;;;;;6.35;2.30;;;;;;;16.53;51.98;102421.53;4921486;29;20024;-57
2021/12/13 06:05:37;;;;;;;3.40;2.53;;;;;;;16.53;51.85;102426.94;4938643;29;20027;-58
2021/12/13 06:08:15;;;;;;;3.08;2.03;;;;;;;16.53;52.72;102421.53;4909810;29;20039;-57
2021/12/13 06:10:49;;;;;;;2.38;1.67;;;;;;;16.53;53.00;102421.53;4938528;29;20020;-57
2021/12/13 06:13:43;;;;;;;4.63;1.85;;;;;;;16.53;51.86;102418.84;4938109;29;20031;-57
2021/12/13 06:16:24;;;;;;;2.58;1.75;;;;;;;16.50;52.33;102408.25;4932612;29;20065;-56
2021/12/13 06:18:58;;;;;;;5.43;1.80;;;;;;;16.51;51.72;102422.63;4937827;29;20412;-56
2021/12/13 06:21:41;;;;;;;2.88;1.60;;;;;;;16.50;52.75;102420.94;4938094;29;20477;-57
2021/12/13 06:24:10;;;;;;;3.33;1.92;;;;;;;16.50;51.65;102427.16;4937925;29;20038;-57
2021/12/13 06:26:35;;;;;;;4.05;1.85;;;;;;;16.50;51.83;102410.94;4937860;29;20032;-58
2021/12/13 06:29:04;;;;;;;3.80;2.10;;;;;;;16.56;52.76;102426.69;4937919;29;20075;-57
2021/12/13 06:31:48;;;;;;;3.78;1.70;;;;;;;16.55;52.02;102416.88;4920630;29;20042;-57
2021/12/13 06:34:16;;;;;;;4.45;1.73;;;;;;;16.58;51.91;102424.72;4937740;29;20153;-57
2021/12/13 06:36:42;;;;;;;2.20;1.75;;;;;;;16.60;51.76;102421.91;4938117;29;20078;-58
2021/12/13 06:39:16;;;;;;;3.63;1.80;;;;;;;16.60;52.71;102427.31;4937522;29;20461;-57
2021/12/13 06:41:41;;;;;;;2.70;1.80;;;;;;;16.60;52.51;102422.75;4920619;29;20591;-58
2021/12/13 06:44:17;;;;;;;3.42;1.98;;;;;;;16.59;51.93;102421.03;4937627;29;20035;-57
2021/12/13 06:46:51;;;;;;;5.22;2.25;;;;;;;16.58;52.58;102421.19;4937128;29;20453;-57
2021/12/13 06:49:40;;;;;;;4.82;1.90;;;;;;;16.56;52.01;102424.00;4937412;29;20034;-57
2021/12/13 06:52:10;;;;;;;2.60;2.05;;;;;;;16.55;51.43;102429.53;4937997;29;20035;-57
2021/12/13 06:54:38;;;;;;;3.85;1.95;;;;;;;16.52;52.06;102436.03;4921649;29;20083;-57
2021/12/13 06:57:33;;;;;;;6.43;2.05;;;;;;;16.52;52.31;102436.03;4956531;29;20484;-57
2021/12/13 07:00:16;;;;;;;3.58;1.73;;;;;;;16.51;53.24;102433.44;4954806;29;20046;-57
2021/12/13 07:02:41;;;;;;;;;;;;;;;16.51;51.47;102436.16;4956788;29;20573;-57
2021/12/13 07:05:15;;;;;;;2.63;1.23;;;;;;;16.50;52.39;102432.59;4956692;29;19914;-57
2021/12/13 07:08:01;;;;;;;2.13;1.40;;;;;;;16.52;52.78;102430.63;4956686;29;20030;-57
2021/12/13 07:10:36;;;;;;;2.80;1.63;;;;;;;16.51;52.48;102434.31;4956160;29;20043;-57
2021/12/13 07:13:09;;;;;;;6.47;2.47;;;;;;;16.54;53.23;102444.91;4956378;29;20030;-57
2021/12/13 07:16:06;;;;;;;7.95;2.70;;;;;;;16.56;52.28;102437.53;4956432;29;20049;-57
2021/12/13 07:19:03;;;;;;;5.72;2.72;;;;;;;16.55;51.32;102446.66;4944832;29;20118;-57
2021/12/13 07:21:35;;;;;;;3.42;1.80;;;;;;;16.50;52.74;102438.00;4956547;29;20025;-57
2021/12/13 07:24:13;;;;;;;8.05;2.10;;;;;;;16.48;52.82;102439.97;4939713;29;20029;-57
2021/12/13 07:26:52;;;;;;;3.40;2.10;;;;;;;16.49;51.93;102447.13;4956613;29;20481;-57
2021/12/13 07:29:28;;;;;;;5.82;1.73;;;;;;;16.50;52.63;102442.56;4956416;29;20424;-57
2021/12/13 07:32:26;;;;;;;4.35;2.08;;;;;;;16.51;51.91;102450.53;4957024;29;20110;-58
2021/12/13 07:35:03;;;;;;;4.47;2.30;;;;;;;16.52;52.31;102452.28;4955935;28;20035;-57
2021/12/13 07:37:45;;;;;;;3.13;1.70;;;;;;;16.50;51.50;102454.22;4956825;29;20023;-58
2021/12/13 07:40:19;;;;;;;5.40;1.95;;;;;;;16.50;53.23;102459.63;4939404;29;20035;-57
2021/12/13 07:42:59;;;;;;;6.60;1.98;;;;;;;16.53;51.39;102455.81;4956138;29;20039;-58
2021/12/13 07:45:31;;;;;;;2.80;1.50;;;;;;;16.51;52.54;102455.97;4956651;29;20082;-57
2021/12/13 07:47:58;;;;;;;3.25;1.88;;;;;;;16.54;51.74;102461.16;4956499;29;20027;-57
2021/12/13 07:50:24;;;;;;;3.78;2.10;;;;;;;16.57;51.88;102462.72;4956699;29;20102;-57
2021/12/13 07:53:00;;;;;;;5.90;2.70;;;;;;;16.57;52.94;102460.91;4956253;29;20032;-58
2021/12/13 07:55:28;;;;;;;2.40;1.40;;;;;;;16.56;52.18;102463.72;4956277;29;20027;-57
2021/12/13 07:57:55;;;;;;;1.58;1.40;;;;;;;16.57;53.08;102476.25;4957788;28;20034;-57
2021/12/13 08:00:25;;;;;;;2.70;1.63;;;;;;;16.57;51.60;102482.53;4942845;29;20028;-58
2021/12/13 08:03:00;;;;;;;2.83;1.98;;;;;;;16.58;51.94;102489.66;4942725;29;20583;-57
2021/12/13 08:05:36;;;;;;;1.63;1.17;;;;;;;16.60;53.11;102493.09;4959815;29;20062;-58
2021/12/13 08:08:03;;;;;;;2.83;1.85;;;;;;;16.60;51.66;102490.41;4959428;29;20493;-57
2021/12/13 08:10:30;;;;;;;2.92;1.63;;;;;;;16.59;51.28;102494.09;4942294;29;20031;-58
2021/12/13 08:13:01;;;;;;;5.10;1.88;;;;;;;16.60;51.72;102497.66;4958907;29;20035;-58
2021/12/13 08:15:43;;;;;;;5.15;1.67;;;;;;;16.62;51.71;102501.94;4959474;29;20023;-57
2021/12/13 08:18:19;;;;;;;2.47;1.73;;;;;;;16.61;51.84;102500.22;4941852;29;20091;-58
2021/12/13 08:20:48;;;;;;;2.90;1.70;;;;;;;16.61;52.21;102499.38;4959663;29;20027;-57
2021/12/13 08:23:38;;;;;;;2.50;2.00;;;;;;;16.65;51.55;102507.09;4959432;29;20019;-57
2021/12/13 08:26:07;;;;;;;2.38;1.48;;;;;;;16.65;51.12;102506.25;4942622;29;20031;-58
2021/12/13 08:28:53;;;;;;;3.38;1.98;;;;;;;16.66;51.72;102508.84;4959551;29;20027;-57
2021/12/13 08:31:25;;;;;;;2.55;2.03;;;;;;;16.68;51.75;102501.44;4958696;29;20496;-58
2021/12/13 08:33:55;;;;;;;3.70;2.45;;;;;;;16.70;52.83;102498.59;4958507;28;20027;-57
2021/12/13 08:36:24;;;;;;;1.42;1.33;;;;;;;16.71;51.08;102501.19;4958923;29;20031;-57
2021/12/13 08:38:53;;;;;;;3.08;1.65;;;;;;;16.70;52.07;102496.75;4959214;29;20027;-57
2021/12/13 08:41:21;;;;;;;2.17;1.67;;;;;;;16.69;51.07;102497.75;4959454;29;20366;-58
2021/12/13 08:44:19;;;;;;;5.05;1.75;;;;;;;16.67;51.72;102499.72;4959123;29;20019;-57
2021/12/13 08:46:50;;;;;;;4.10;1.83;;;;;;;16.65;52.23;102495.41;4949978;28;20090;-57
2021/12/13 08:49:31;;;;;;;3.55;2.25;;;;;;;16.62;51.43;102495.66;4958591;28;20031;-57
2021/12/13 08:52:23;;;;;;;6.03;2.20;;;;;;;16.62;51.15;102504.66;4958442;29;20143;-57
2021/12/13 08:54:51;;;;;;;4.55;1.58;;;;;;;16.66;51.04;102503.44;4959600;28;20076;-57
2021/12/13 08:57:46;;;;;;;5.28;2.20;;;;;;;16.70;52.60;102504.88;4958767;28;20035;-57
2021/12/13 09:00:14;;;;;;;10.10;2.17;;;;;;;16.76;52.48;102498.94;4959035;28;20469;-58
2021/12/13 09:02:47;;;;;;;2.60;1.60;;;;;;;16.81;52.34;102507.53;4958899;28;20023;-57
2021/12/13 09:05:22;;;;;;;2.22;1.60;;;;;;;16.88;51.68;102506.06;4957437;29;20399;-57
2021/12/13 09:07:56;;;;;;;3.20;1.63;;;;;;;16.94;52.11;102511.94;4958421;28;20031;-58
2021/12/13 09:10:24;;;;;;;4.60;2.08;;;;;;;17.00;51.60;102511.44;4958767;28;20039;-57
2021/12/13 09:12:57;;;;;;;4.18;1.55;;;;;;;17.03;51.49;102505.75;4957036;29;20050;-57
2021/12/13 09:15:24;;;;;;;;;;;;;;;17.08;51.28;102500.81;4959224;28;20035;-58
2021/12/13 09:17:51;;;;;;;1.58;1.30;;;;;;;17.11;51.07;102503.25;4958441;28;19910;-57
2021/12/13 09:20:20;;;;;;;2.90;1.63;;;;;;;17.15;51.81;102510.09;4957842;28;20062;-58
2021/12/13 09:22:51;;;;;;;3.20;1.40;;;;;;;17.18;51.55;102516.13;4958239;28;20536;-58
2021/12/13 09:25:28;;;;;;;3.78;1.25;;;;;;;17.23;50.71;102518.44;4958222;28;20034;-58
2021/12/13 09:27:57;;;;;;;2.75;1.23;;;;;;;17.26;51.71;102515.47;4957822;28;20547;-57
2021/12/13 09:30:59;;;;;;;2.78;1.50;;;;;;;17.28;51.26;102517.06;4957048;29;20548;-57
2021/12/13 09:33:29;;;;;;;2.08;1.30;;;;;;;17.27;52.16;102518.06;4956416;29;20086;-58
2021/12/13 09:36:32;;;;;;;2.58;1.75;;;;;;;17.28;51.95;102527.06;4958126;28;20027;-57
2021/12/13 09:39:04;;;;;;;4.28;1.88;;;;;;;17.26;50.25;102529.88;4952745;29;20062;-57
2021/12/13 09:41:45;;;;;;;1.90;1.35;;;;;;;17.27;51.14;102531.59;4958070;28;20023;-57
2021/12/13 09:44:11;;;;;;;5.00;1.13;;;;;;;17.26;51.46;102529.88;4957884;28;20114;-58
2021/12/13 09:46:40;;;;;;;1.02;0.93;;;;;;;17.25;51.11;102521.88;4958322;28;20447;-57
2021/12/13 09:49:20;;;;;;;3.03;1.58;;;;;;;17.21;50.92;102520.41;4958061;28;20520;-58
2021/12/13 09:52:09;;;;;;;2.05;1.45;;;;;;;17.15;51.00;102520.94;4957889;28;20023;-57
2021/12/13 09:54:39;;;;;;;1.55;1.23;;;;;;;17.13;51.32;102517.50;4951893;28;20126;-58
2021/12/13 09:57:10;;;;;;;2.78;1.30;;;;;;;17.12;50.83;102518.50;4957644;28;20031;-57
2021/12/13 09:59:43;;;;;;;3.22;1.10;;;;;;;17.12;51.34;102521.19;4957890;28;20035;-58
2021/12/13 10:02:21;;;;;;;5.32;1.38;;;;;;;17.11;51.41;102520.38;4957288;28;20027;-57
2021/12/13 10:04:49;;;;;;;1.40;1.10;;;;;;;17.15;51.21;102523.66;4957458;28;20400;-57
2021/12/13 10:07:25;;;;;;;1.42;1.00;;;;;;;17.18;51.46;102523.38;4957973;28;20111;-57
2021/12/13 10:09:56;;;;;;;2.67;1.50;;;;;;;17.21;52.01;102521.28;4957426;28;20480;-57
2021/12/13 10:12:28;;;;;;;2.25;1.48;;;;;;;17.25;50.83;102524.59;4957703;28;20502;-58
2021/12/13 10:15:01;;;;;;;1.52;1.10;;;;;;;17.31;50.55;102519.50;4957563;28;20027;-57
2021/12/13 10:17:31;;;;;;;1.40;0.80;;;;;;;17.36;50.70;102519.97;4957558;28;20042;-57
2021/12/13 10:19:58;;;;;;;1.80;0.80;;;;;;;17.37;50.32;102520.81;4955144;28;20046;-57
2021/12/13 10:22:26;;;;;;;1.30;1.08;;;;;;;17.38;50.93;102517.13;4957293;28;20027;-57
2021/12/13 10:24:56;;;;;;;1.42;0.95;;;;;;;17.41;50.32;102527.72;4957150;28;20498;-57
2021/12/13 10:27:23;;;;;;;4.72;0.90;;;;;;;17.46;49.98;102525.47;4957003;28;20495;-57
2021/12/13 10:29:54;;;;;;;3.38;1.13;;;;;;;17.50;50.84;102523.34;4956833;29;20031;-57
2021/12/13 10:32:24;;;;;;;1.23;0.88;;;;;;;17.49;49.83;102522.47;4958331;28;20031;-57
2021/12/13 10:34:54;;;;;;;1.88;0.88;;;;;;;17.52;49.70;102524.06;4958862;28;20035;-58
2021/12/13 10:37:30;;;;;;;2.38;0.90;;;;;;;17.48;50.25;102518.03;4959248;28;20027;-58
2021/12/13 10:40:05;;;;;;;1.23;0.88;;;;;;;17.47;50.15;102522.59;4958624;28;20473;-58
2021/12/13 10:42:34;;;;;;;2.50;0.88;;;;;;;17.51;51.31;102534.03;4957761;29;20158;-58
2021/12/13 10:45:01;;;;;;;0.60;0.45;;;;;;;17.46;50.37;102525.47;4958018;29;20030;-57
2021/12/13 10:47:34;;;;;;;1.52;0.75;;;;;;;17.46;49.65;102533.59;4958997;28;20046;-58
2021/12/13 10:50:00;;;;;;;2.45;0.80;;;;;;;17.46;50.28;102530.88;4958843;28;20499;-57
2021/12/13 10:52:35;;;;;;;3.75;0.98;;;;;;;17.45;50.24;102519.16;4958900;28;20035;-57
2021/12/13 10:55:10;;;;;;;1.33;0.75;;;;;;;17.48;49.36;102523.47;4959124;28;20066;-58
2021/12/13 10:57:40;;;;;;;1.20;1.00;;;;;;;17.48;50.20;102526.16;4958881;28;20551;-58
2021/12/13 11:00:09;;;;;;;1.05;0.77;;;;;;;17.51;49.91;102531.34;4958910;28;20476;-58
2021/12/13 11:02:35;;;;;;;1.40;0.70;;;;;;;17.50;49.70;102521.50;4958799;28;20030;-57
2021/12/13 11:05:20;;;;;;;0.93;0.73;;;;;;;17.51;50.11;102525.91;4958960;28;20453;-58
2021/12/13 11:07:48;;;;;;;1.80;0.90;;;;;;;17.51;50.46;102523.19;4958840;28;20110;-57
2021/12/13 11:10:24;;;;;;;1.27;0.85;;;;;;;17.46;49.94;102510.06;4958544;28;20098;-58
2021/12/13 11:12:54;;;;;;;3.13;0.70;;;;;;;17.48;49.42;102512.63;4958474;28;20027;-58
2021/12/13 11:15:25;;;;;;;1.75;1.08;;;;;;;17.48;49.76;102507.22;4958770;28;20031;-57
2021/12/13 11:17:51;;;;;;;2.10;1.15;;;;;;;17.47;49.98;102510.94;4957712;29;20038;-57
2021/12/13 11:20:44;;;;;;;1.85;1.20;;;;;;;17.46;50.45;102520.03;4958550;28;20055;-57
2021/12/13 11:23:12;;;;;;;1.35;0.90;;;;;;;17.47;49.21;102516.34;4951613;29;20066;-57
2021/12/13 11:25:47;;;;;;;1.48;0.82;;;;;;;17.49;49.90;102514.34;4958545;28;20027;-58
2021/12/13 11:28:14;;;;;;;6.00;1.10;;;;;;;17.50;50.51;102507.09;4958406;28;20085;-58
2021/12/13 11:30:43;;;;;;;2.92;1.08;;;;;;;17.51;49.96;102506.94;4957491;29;20031;-58
2021/12/13 11:33:09;;;;;;;1.45;0.85;;;;;;;17.51;50.42;102509.66;4962415;28;20027;-58
2021/12/13 11:36:00;;;;;;;1.73;1.00;;;;;;;17.54;49.57;102516.69;4962250;28;20030;-58
2021/12/13 11:39:22;;;;;;;2.30;1.08;;;;;;;17.52;49.43;102510.53;4960239;28;20023;-58
2021/12/13 11:42:05;;;;;;;2.30;1.00;;;;;;;17.48;49.37;102512.63;4919611;29;20574;-58
2021/12/13 11:44:58;;;;;;;1.67;1.15;;;;;;;17.50;50.73;102504.38;4919720;29;20442;-57
2021/12/13 11:47:29;;;;;;;1.98;1.48;;;;;;;17.52;49.03;102505.97;4945350;29;20143;-57
2021/12/13 11:50:13;;;;;;;2.03;1.00;;;;;;;17.52;49.82;102503.25;4960109;28;20384;-58
2021/12/13 11:53:09;;;;;;;3.47;1.42;;;;;;;17.54;50.11;102509.41;4960045;28;20126;-58
2021/12/13 11:56:09;;;;;;;5.03;1.35;;;;;;;17.53;49.26;102499.56;4959905;28;20035;-57
2021/12/13 11:58:44;;;;;;;3.45;1.50;;;;;;;17.52;50.16;102497.84;4959914;28;20038;-58
2021/12/13 12:01:47;;;;;;;1.48;1.27;;;;;;;17.52;49.69;102481.56;4960244;28;20074;-58
2021/12/13 12:04:50;;;;;;;5.15;1.40;;;;;;;17.49;49.85;102489.97;4960116;29;20114;-58
2021/12/13 12:07:59;;;;;;;3.30;1.52;;;;;;;17.48;50.76;102480.97;4958621;29;20035;-58
2021/12/13 12:10:49;;;;;;;3.03;1.15;;;;;;;17.47;50.03;102478.41;4959549;28;20058;-58
2021/12/13 12:13:35;;;;;;;3.35;1.55;;;;;;;17.52;49.96;102491.56;4960956;28;20090;-57
2021/12/13 12:16:02;;;;;;;3.13;1.70;;;;;;;17.54;50.03;102476.91;4961558;28;20398;-58